Time;durP1;ratioP1;P1;durP2;ratioP2;P2;SDS_P1;SDS_P2;PMS_P1;PMS_P2;Temp;Humidity;BMP_temperature;BMP_pressure;BME280_temperature;BME280_humidity;BME280_pressure;Samples;Min_cycle;Max_cycle;Signal;HPM_P1;HPM_P2
2022/07/13 00:01:34;;;;;;;3.40;2.10;;;;;;;;;;5075063;28;20035;-68
2022/07/13 00:04:00;;;;;;;3.58;2.03;;;;;;;;;;5088110;28;20440;-68
2022/07/13 00:06:25;;;;;;;6.43;2.00;;;;;;;;;;5074935;28;20020;-68
2022/07/13 00:08:50;;;;;;;5.88;2.10;;;;;;;;;;5082657;28;20032;-68
2022/07/13 00:11:15;;;;;;;4.10;2.25;;;;;;;;;;5074785;28;20025;-68
2022/07/13 00:13:41;;;;;;;4.07;1.92;;;;;;;;;;5081175;28;20487;-67
2022/07/13 00:16:06;;;;;;;6.55;2.20;;;;;;;;;;5095205;28;20016;-67
2022/07/13 00:18:31;;;;;;;3.80;2.25;;;;;;;;;;5085760;28;20488;-67
2022/07/13 00:20:57;;;;;;;4.28;2.00;;;;;;;;;;5074325;28;20464;-67
2022/07/13 00:23:22;;;;;;;3.20;2.00;;;;;;;;;;5079015;28;20128;-67
2022/07/13 00:25:48;;;;;;;4.70;1.77;;;;;;;;;;5094623;28;20073;-68
2022/07/13 00:28:13;;;;;;;2.92;1.92;;;;;;;;;;5091485;28;20031;-67
2022/07/13 00:30:38;;;;;;;3.38;2.00;;;;;;;;;;5074458;28;20028;-68
2022/07/13 00:33:05;;;;;;;5.03;2.00;;;;;;;;;;5077297;28;20059;-67
2022/07/13 00:35:30;;;;;;;3.70;2.03;;;;;;;;;;5092644;28;20123;-68
2022/07/13 00:37:55;;;;;;;4.20;2.03;;;;;;;;;;5091772;28;20102;-67
2022/07/13 00:40:20;;;;;;;5.88;2.63;;;;;;;;;;5094719;28;20051;-67
2022/07/13 00:42:46;;;;;;;7.05;2.10;;;;;;;;;;5088426;28;20052;-67
2022/07/13 00:45:11;;;;;;;5.43;2.15;;;;;;;;;;5075581;28;20074;-67
2022/07/13 00:47:37;;;;;;;3.50;2.20;;;;;;;;;;5081274;28;20098;-67
2022/07/13 00:50:06;;;;;;;5.10;2.30;;;;;;;;;;5075242;28;20078;-67
2022/07/13 00:52:31;;;;;;;3.60;2.42;;;;;;;;;;5075832;28;20028;-67
2022/07/13 00:54:56;;;;;;;4.00;2.38;;;;;;;;;;5091646;28;20035;-67
2022/07/13 00:57:23;;;;;;;4.05;2.13;;;;;;;;;;5093255;28;20434;-67
2022/07/13 00:59:49;;;;;;;4.25;2.30;;;;;;;;;;5092964;28;20047;-67
2022/07/13 01:02:14;;;;;;;4.50;2.38;;;;;;;;;;5093604;28;20665;-67
2022/07/13 01:04:39;;;;;;;4.60;1.95;;;;;;;;;;5079717;28;20040;-67
2022/07/13 01:07:05;;;;;;;4.07;2.47;;;;;;;;;;5073845;28;20457;-68
2022/07/13 01:09:31;;;;;;;3.38;2.20;;;;;;;;;;5091707;28;20055;-67
2022/07/13 01:11:56;;;;;;;4.68;2.22;;;;;;;;;;5074444;28;20380;-67
2022/07/13 01:14:22;;;;;;;3.85;2.28;;;;;;;;;;5088857;28;20099;-68
2022/07/13 01:16:47;;;;;;;8.70;3.00;;;;;;;;;;5093903;28;20424;-67
2022/07/13 01:19:13;;;;;;;4.80;2.40;;;;;;;;;;5084932;28;20435;-67
2022/07/13 01:21:44;;;;;;;4.60;2.80;;;;;;;;;;5089375;28;20038;-67
2022/07/13 01:24:10;;;;;;;4.80;2.60;;;;;;;;;;5092023;28;20615;-68
2022/07/13 01:26:36;;;;;;;4.38;2.70;;;;;;;;;;5092170;28;20032;-67
2022/07/13 01:29:01;;;;;;;6.85;2.83;;;;;;;;;;5087906;28;20127;-67
2022/07/13 01:31:37;;;;;;;4.57;2.65;;;;;;;;;;5081643;28;20031;-67
2022/07/13 01:34:02;;;;;;;4.13;2.60;;;;;;;;;;5088376;28;20030;-67
2022/07/13 01:36:28;;;;;;;6.18;2.20;;;;;;;;;;5083471;28;20028;-67
2022/07/13 01:38:53;;;;;;;3.92;2.38;;;;;;;;;;5088007;28;20106;-68
2022/07/13 01:41:19;;;;;;;3.70;2.55;;;;;;;;;;5087693;28;20013;-67
2022/07/13 01:43:45;;;;;;;5.85;2.50;;;;;;;;;;5092937;28;20103;-68
2022/07/13 01:46:10;;;;;;;3.88;2.15;;;;;;;;;;5090235;28;20032;-68
2022/07/13 01:48:35;;;;;;;3.97;2.53;;;;;;;;;;5090598;28;20436;-68
2022/07/13 01:51:00;;;;;;;4.20;2.70;;;;;;;;;;5092262;28;20515;-67
2022/07/13 01:53:26;;;;;;;5.20;2.50;;;;;;;;;;5083847;28;20032;-67
2022/07/13 01:55:51;;;;;;;4.40;2.53;;;;;;;;;;5081293;28;20020;-68
2022/07/13 01:58:16;;;;;;;3.40;2.40;;;;;;;;;;5092960;28;20020;-67
2022/07/13 02:00:41;;;;;;;5.05;2.63;;;;;;;;;;5075765;28;20029;-68
2022/07/13 02:03:07;;;;;;;4.22;2.40;;;;;;;;;;5080762;28;20028;-68
2022/07/13 02:05:32;;;;;;;3.92;2.42;;;;;;;;;;5078330;28;20033;-67
2022/07/13 02:07:57;;;;;;;4.03;2.50;;;;;;;;;;5079359;28;20054;-67
2022/07/13 02:10:34;;;;;;;6.93;2.50;;;;;;;;;;5078898;28;20028;-68
2022/07/13 02:13:00;;;;;;;5.57;2.30;;;;;;;;;;5079929;28;20031;-67
2022/07/13 02:15:25;;;;;;;6.22;2.60;;;;;;;;;;5091242;28;20357;-67
2022/07/13 02:17:50;;;;;;;4.57;2.03;;;;;;;;;;5091712;28;20077;-67
2022/07/13 02:20:16;;;;;;;4.28;2.08;;;;;;;;;;5081531;28;20114;-67
2022/07/13 02:22:44;;;;;;;3.20;2.10;;;;;;;;;;5092071;28;20017;-67
2022/07/13 02:25:10;;;;;;;4.38;2.10;;;;;;;;;;5091144;28;20030;-67
2022/07/13 02:27:35;;;;;;;5.15;2.30;;;;;;;;;;5087778;28;20096;-67
2022/07/13 02:30:00;;;;;;;4.28;2.28;;;;;;;;;;5072259;28;20490;-67
2022/07/13 02:32:25;;;;;;;3.60;2.60;;;;;;;;;;5090076;28;20043;-67
2022/07/13 02:34:51;;;;;;;5.40;2.55;;;;;;;;;;5090239;28;20169;-67
2022/07/13 02:37:16;;;;;;;6.20;2.33;;;;;;;;;;5087172;28;20039;-68
2022/07/13 02:39:41;;;;;;;4.45;2.13;;;;;;;;;;5088563;28;20035;-68
2022/07/13 02:42:06;;;;;;;5.75;2.53;;;;;;;;;;5090084;28;20020;-68
2022/07/13 02:44:31;;;;;;;4.45;2.35;;;;;;;;;;5091213;28;20058;-68
2022/07/13 02:46:57;;;;;;;7.40;2.80;;;;;;;;;;5090635;28;20024;-68
2022/07/13 02:49:22;;;;;;;6.57;2.35;;;;;;;;;;5091229;28;20016;-68
2022/07/13 02:51:49;;;;;;;5.13;2.40;;;;;;;;;;5081886;28;20042;-68
2022/07/13 02:54:14;;;;;;;6.55;2.60;;;;;;;;;;5090865;28;20024;-68
2022/07/13 02:56:39;;;;;;;3.95;2.40;;;;;;;;;;5080696;28;20046;-68
2022/07/13 02:59:04;;;;;;;4.10;2.47;;;;;;;;;;5091613;28;20108;-68
2022/07/13 03:01:29;;;;;;;4.72;2.58;;;;;;;;;;5089224;28;20478;-68
2022/07/13 03:03:55;;;;;;;5.07;2.60;;;;;;;;;;5091557;28;20559;-67
2022/07/13 03:06:20;;;;;;;3.85;2.65;;;;;;;;;;5080371;28;20059;-68
2022/07/13 03:08:45;;;;;;;4.80;2.38;;;;;;;;;;5085014;28;20024;-68
2022/07/13 03:11:10;;;;;;;4.32;2.65;;;;;;;;;;5090956;28;20031;-68
2022/07/13 03:13:35;;;;;;;4.15;3.00;;;;;;;;;;5090131;28;20058;-68
2022/07/13 03:16:01;;;;;;;3.78;2.53;;;;;;;;;;5091417;28;20052;-68
2022/07/13 03:18:26;;;;;;;4.93;2.72;;;;;;;;;;5090169;28;20024;-68
2022/07/13 03:20:51;;;;;;;4.32;2.50;;;;;;;;;;5080799;28;20024;-68
2022/07/13 03:23:16;;;;;;;6.35;3.05;;;;;;;;;;5080811;28;20476;-68
2022/07/13 03:25:41;;;;;;;5.05;3.50;;;;;;;;;;5089557;28;20024;-68
2022/07/13 03:28:07;;;;;;;6.18;3.50;;;;;;;;;;5085400;28;20017;-68
2022/07/13 03:30:32;;;;;;;8.07;3.60;;;;;;;;;;5080232;28;20049;-68
2022/07/13 03:32:57;;;;;;;5.10;3.53;;;;;;;;;;5090588;28;20377;-67
2022/07/13 03:35:23;;;;;;;6.30;3.70;;;;;;;;;;5089428;28;20029;-67
2022/07/13 03:37:48;;;;;;;6.45;3.80;;;;;;;;;;5091242;28;20024;-67
2022/07/13 03:40:13;;;;;;;5.47;3.75;;;;;;;;;;5089532;28;20033;-67
2022/07/13 03:42:38;;;;;;;6.25;3.60;;;;;;;;;;5090837;28;20100;-68
2022/07/13 03:45:04;;;;;;;5.57;3.40;;;;;;;;;;5089496;28;20104;-67
2022/07/13 03:47:29;;;;;;;6.90;3.40;;;;;;;;;;5091109;28;20028;-68
2022/07/13 03:49:55;;;;;;;5.57;3.30;;;;;;;;;;5083867;28;20070;-68
2022/07/13 03:52:21;;;;;;;4.78;3.40;;;;;;;;;;5072669;28;20061;-67
2022/07/13 03:54:46;;;;;;;6.18;3.40;;;;;;;;;;5082759;28;20081;-67
2022/07/13 03:57:11;;;;;;;5.90;2.95;;;;;;;;;;5091075;28;20542;-67
2022/07/13 03:59:36;;;;;;;6.32;3.60;;;;;;;;;;5083452;28;20021;-68
2022/07/13 04:02:02;;;;;;;8.63;3.38;;;;;;;;;;5071020;28;20103;-68
2022/07/13 04:04:28;;;;;;;7.78;3.33;;;;;;;;;;5077363;28;20103;-67
2022/07/13 04:06:53;;;;;;;6.47;3.95;;;;;;;;;;5076477;28;20037;-68
2022/07/13 04:09:18;;;;;;;7.40;3.40;;;;;;;;;;5081781;28;20020;-68
2022/07/13 04:11:44;;;;;;;6.38;3.15;;;;;;;;;;5072061;28;20104;-68
2022/07/13 04:14:09;;;;;;;4.45;2.90;;;;;;;;;;5082438;28;20024;-67
2022/07/13 04:16:34;;;;;;;4.80;3.30;;;;;;;;;;5094657;28;20073;-68
2022/07/13 04:18:59;;;;;;;4.78;3.50;;;;;;;;;;5093236;28;20055;-68
2022/07/13 04:21:25;;;;;;;5.03;3.40;;;;;;;;;;5080909;28;20040;-67
2022/07/13 04:23:50;;;;;;;4.65;3.25;;;;;;;;;;5087068;28;20027;-68
2022/07/13 04:26:15;;;;;;;9.90;3.20;;;;;;;;;;5094627;28;20020;-68
2022/07/13 04:28:40;;;;;;;6.30;3.13;;;;;;;;;;5093042;28;20039;-68
2022/07/13 04:31:06;;;;;;;6.53;3.45;;;;;;;;;;5092996;28;20646;-68
2022/07/13 04:33:31;;;;;;;7.80;3.20;;;;;;;;;;5091758;28;20713;-68
2022/07/13 04:35:56;;;;;;;8.13;3.25;;;;;;;;;;5074905;28;20025;-68
2022/07/13 04:38:21;;;;;;;6.85;3.38;;;;;;;;;;5083244;28;20109;-68
2022/07/13 04:40:47;;;;;;;5.47;3.38;;;;;;;;;;5091311;28;20032;-68
2022/07/13 04:43:12;;;;;;;6.55;3.17;;;;;;;;;;5092654;28;20077;-68
2022/07/13 04:45:37;;;;;;;6.60;3.20;;;;;;;;;;5075865;28;20029;-68
2022/07/13 04:48:03;;;;;;;4.50;2.85;;;;;;;;;;5081442;28;20384;-68
2022/07/13 04:50:29;;;;;;;4.90;3.15;;;;;;;;;;5092711;28;20035;-68
2022/07/13 04:52:54;;;;;;;4.10;3.00;;;;;;;;;;5092861;28;20115;-67
2022/07/13 04:55:19;;;;;;;4.78;2.88;;;;;;;;;;5078249;28;20060;-68
2022/07/13 04:57:44;;;;;;;4.03;2.85;;;;;;;;;;5093771;28;20097;-68
2022/07/13 05:00:10;;;;;;;8.25;3.15;;;;;;;;;;5090053;28;20031;-68
2022/07/13 05:02:36;;;;;;;8.00;3.63;;;;;;;;;;5078804;28;20020;-68
2022/07/13 05:05:02;;;;;;;7.38;3.30;;;;;;;;;;5076453;28;20025;-68
2022/07/13 05:07:28;;;;;;;4.38;2.90;;;;;;;;;;5092420;28;20028;-68
2022/07/13 05:09:54;;;;;;;8.27;2.97;;;;;;;;;;5093713;28;20024;-68
2022/07/13 05:12:19;;;;;;;5.72;3.42;;;;;;;;;;5083139;28;20020;-68
2022/07/13 05:14:45;;;;;;;7.63;3.00;;;;;;;;;;5081943;28;20032;-69
2022/07/13 05:17:10;;;;;;;6.20;2.70;;;;;;;;;;5073660;28;20017;-68
2022/07/13 05:19:35;;;;;;;4.78;2.80;;;;;;;;;;5089937;28;20024;-68
2022/07/13 05:22:00;;;;;;;5.10;2.60;;;;;;;;;;5074749;28;20025;-68
2022/07/13 05:24:26;;;;;;;8.25;2.90;;;;;;;;;;5091862;28;20032;-68
2022/07/13 05:26:51;;;;;;;7.13;2.70;;;;;;;;;;5093342;28;20103;-68
2022/07/13 05:29:16;;;;;;;4.90;2.80;;;;;;;;;;5082677;28;20199;-68
2022/07/13 05:31:42;;;;;;;5.57;3.17;;;;;;;;;;5080158;28;20464;-68
2022/07/13 05:34:07;;;;;;;8.63;2.92;;;;;;;;;;5073884;28;20396;-68
2022/07/13 05:36:33;;;;;;;5.40;3.00;;;;;;;;;;5079690;28;20020;-68
2022/07/13 05:38:59;;;;;;;4.50;2.63;;;;;;;;;;5085058;28;20464;-68
2022/07/13 05:41:24;;;;;;;8.95;2.50;;;;;;;;;;5078244;28;20047;-68
2022/07/13 05:43:49;;;;;;;5.20;2.30;;;;;;;;;;5077465;28;20024;-68
2022/07/13 05:46:14;;;;;;;12.00;2.53;;;;;;;;;;5082315;28;20022;-68
2022/07/13 05:48:40;;;;;;;6.65;2.40;;;;;;;;;;5081707;28;20107;-68
2022/07/13 05:51:05;;;;;;;4.80;2.10;;;;;;;;;;5078291;28;20028;-68
2022/07/13 05:53:30;;;;;;;5.65;2.33;;;;;;;;;;5091040;28;20039;-68
2022/07/13 05:55:56;;;;;;;5.28;2.20;;;;;;;;;;5092551;28;20383;-68
2022/07/13 05:58:22;;;;;;;8.25;2.30;;;;;;;;;;5092360;28;20012;-68
2022/07/13 06:00:47;;;;;;;6.95;2.30;;;;;;;;;;5092924;28;20122;-68
2022/07/13 06:03:12;;;;;;;6.32;1.83;;;;;;;;;;5090331;28;20438;-68
2022/07/13 06:05:38;;;;;;;3.35;1.75;;;;;;;;;;5092758;28;20017;-68
2022/07/13 06:08:03;;;;;;;10.23;1.90;;;;;;;;;;5090425;28;20012;-68
2022/07/13 06:10:30;;;;;;;6.85;1.77;;;;;;;;;;5092405;28;20113;-68
2022/07/13 06:12:55;;;;;;;6.35;2.03;;;;;;;;;;5092402;28;20356;-68
2022/07/13 06:15:20;;;;;;;2.90;1.77;;;;;;;;;;5089268;28;20245;-68
2022/07/13 06:17:45;;;;;;;9.35;2.13;;;;;;;;;;5077137;28;20016;-68
2022/07/13 06:20:11;;;;;;;5.00;1.70;;;;;;;;;;5092045;28;20020;-68
2022/07/13 06:22:36;;;;;;;3.95;1.65;;;;;;;;;;5088043;28;20024;-68
2022/07/13 06:25:03;;;;;;;3.17;1.60;;;;;;;;;;5092129;28;20028;-68
2022/07/13 06:27:28;;;;;;;5.10;2.00;;;;;;;;;;5092005;28;20448;-68
2022/07/13 06:29:53;;;;;;;9.55;1.73;;;;;;;;;;5092476;28;20077;-68
2022/07/13 06:32:19;;;;;;;9.75;1.73;;;;;;;;;;5090194;28;20387;-68
2022/07/13 06:34:44;;;;;;;5.05;1.45;;;;;;;;;;5091193;28;20538;-68
2022/07/13 06:37:09;;;;;;;4.45;1.60;;;;;;;;;;5089626;28;20024;-68
2022/07/13 06:39:34;;;;;;;5.95;1.80;;;;;;;;;;5081333;28;20020;-68
2022/07/13 06:42:00;;;;;;;8.68;1.65;;;;;;;;;;5092152;28;20476;-68
2022/07/13 06:44:25;;;;;;;6.93;1.70;;;;;;;;;;5091312;28;20178;-68
2022/07/13 06:46:50;;;;;;;10.27;2.10;;;;;;;;;;5092091;28;20036;-67
2022/07/13 06:49:15;;;;;;;6.50;1.73;;;;;;;;;;5074573;28;20084;-68
2022/07/13 06:51:41;;;;;;;8.02;1.85;;;;;;;;;;5071425;28;20036;-67
2022/07/13 06:54:06;;;;;;;13.63;1.50;;;;;;;;;;5087184;28;20016;-68
2022/07/13 06:56:31;;;;;;;9.43;1.73;;;;;;;;;;5071692;28;20027;-68
2022/07/13 06:58:56;;;;;;;10.02;1.40;;;;;;;;;;5086255;28;20016;-68
2022/07/13 07:01:22;;;;;;;6.25;1.73;;;;;;;;;;5092047;28;20029;-68
2022/07/13 07:03:47;;;;;;;4.15;1.40;;;;;;;;;;5091537;28;20081;-68
2022/07/13 07:06:12;;;;;;;4.63;1.40;;;;;;;;;;5074958;28;20028;-68
2022/07/13 07:08:37;;;;;;;8.13;1.30;;;;;;;;;;5081915;28;20476;-68
2022/07/13 07:11:03;;;;;;;5.40;1.52;;;;;;;;;;5092285;28;20440;-68
2022/07/13 07:13:28;;;;;;;6.80;1.40;;;;;;;;;;5091863;28;20039;-68
2022/07/13 07:15:53;;;;;;;6.47;1.60;;;;;;;;;;5090665;28;20369;-68
2022/07/13 07:18:21;;;;;;;5.03;1.40;;;;;;;;;;5087406;28;20111;-68
2022/07/13 07:20:46;;;;;;;8.35;1.33;;;;;;;;;;5092475;28;20035;-68
2022/07/13 07:23:12;;;;;;;5.40;1.45;;;;;;;;;;5090412;28;20028;-68
2022/07/13 07:25:37;;;;;;;3.60;1.30;;;;;;;;;;5072363;28;20411;-68
2022/07/13 07:28:02;;;;;;;5.38;1.25;;;;;;;;;;5079779;28;20049;-69
2022/07/13 07:30:28;;;;;;;2.78;1.40;;;;;;;;;;5088131;28;20389;-69
2022/07/13 07:32:53;;;;;;;4.38;1.50;;;;;;;;;;5091269;28;20017;-68
2022/07/13 07:35:18;;;;;;;3.03;1.30;;;;;;;;;;5090615;28;20043;-68
2022/07/13 07:37:44;;;;;;;4.40;1.88;;;;;;;;;;5085096;28;20465;-68
2022/07/13 07:40:11;;;;;;;4.72;2.20;;;;;;;;;;5091249;28;20024;-67
2022/07/13 07:42:36;;;;;;;7.45;1.60;;;;;;;;;;5091367;28;20435;-69
2022/07/13 07:45:03;;;;;;;4.90;1.80;;;;;;;;;;5091167;28;20024;-68
2022/07/13 07:47:29;;;;;;;4.55;1.90;;;;;;;;;;5088519;28;20040;-68
2022/07/13 07:49:54;;;;;;;6.25;2.20;;;;;;;;;;5095179;28;20634;-68
2022/07/13 07:52:19;;;;;;;5.38;1.85;;;;;;;;;;5092775;28;20031;-69
2022/07/13 07:54:46;;;;;;;7.65;1.63;;;;;;;;;;5095301;28;20024;-69
2022/07/13 07:57:11;;;;;;;6.25;2.08;;;;;;;;;;5092476;28;20091;-69
2022/07/13 07:59:36;;;;;;;6.15;2.00;;;;;;;;;;5074538;28;20048;-68
2022/07/13 08:02:02;;;;;;;4.28;1.80;;;;;;;;;;5074607;28;20021;-68
2022/07/13 08:04:27;;;;;;;5.63;1.73;;;;;;;;;;5094176;28;20032;-69
2022/07/13 08:06:52;;;;;;;3.70;1.40;;;;;;;;;;5094313;28;20135;-69
2022/07/13 08:09:17;;;;;;;5.90;1.45;;;;;;;;;;5088497;28;20427;-69
2022/07/13 08:11:42;;;;;;;3.88;1.38;;;;;;;;;;5074564;28;20477;-68
2022/07/13 08:14:08;;;;;;;3.90;1.30;;;;;;;;;;5091157;28;20103;-69
2022/07/13 08:16:33;;;;;;;5.38;1.38;;;;;;;;;;5094587;28;20410;-68
2022/07/13 08:18:58;;;;;;;3.22;1.40;;;;;;;;;;5092783;28;20020;-69
2022/07/13 08:21:24;;;;;;;3.88;1.50;;;;;;;;;;5074641;28;20091;-69
2022/07/13 08:23:52;;;;;;;3.33;1.48;;;;;;;;;;5088433;28;20058;-68
2022/07/13 08:26:24;;;;;;;5.03;1.67;;;;;;;;;;5094507;28;20128;-69
2022/07/13 08:28:49;;;;;;;4.03;1.73;;;;;;;;;;5094417;28;20361;-69
2022/07/13 08:31:15;;;;;;;4.78;1.77;;;;;;;;;;5092412;28;20136;-68
2022/07/13 08:39:08;;;;;;;2.95;1.48;;;;;;;;;;5091958;28;20078;-68
2022/07/13 08:41:33;;;;;;;4.03;1.52;;;;;;;;;;5084321;28;20025;-68
2022/07/13 08:44:00;;;;;;;5.18;1.95;;;;;;;;;;5086316;28;20095;-69
2022/07/13 08:46:26;;;;;;;5.82;1.60;;;;;;;;;;5094418;28;20569;-69
2022/07/13 08:48:53;;;;;;;8.60;1.80;;;;;;;;;;5093620;28;20035;-69
2022/07/13 08:51:18;;;;;;;6.55;1.42;;;;;;;;;;5086283;28;20033;-68
2022/07/13 08:53:44;;;;;;;3.28;1.52;;;;;;;;;;5077822;28;20044;-69
2022/07/13 08:56:09;;;;;;;3.35;1.70;;;;;;;;;;5073934;28;20592;-68
2022/07/13 08:58:35;;;;;;;5.32;1.80;;;;;;;;;;5084684;28;20024;-69
2022/07/13 09:01:01;;;;;;;4.45;1.80;;;;;;;;;;5093883;28;20020;-69
2022/07/13 09:03:26;;;;;;;5.47;1.92;;;;;;;;;;5093491;28;20035;-68
2022/07/13 09:05:51;;;;;;;3.63;1.75;;;;;;;;;;5093438;28;20031;-69
2022/07/13 09:08:18;;;;;;;5.22;1.90;;;;;;;;;;5091830;28;20024;-69
2022/07/13 09:10:57;;;;;;;4.55;1.90;;;;;;;;;;5093897;28;20105;-68
2022/07/13 09:13:52;;;;;;;6.38;1.83;;;;;;;;;;5093217;28;20024;-68
2022/07/13 09:16:21;;;;;;;6.63;1.88;;;;;;;;;;5078281;28;20028;-68
2022/07/13 09:18:48;;;;;;;8.45;2.17;;;;;;;;;;5086997;28;20016;-68
2022/07/13 09:21:13;;;;;;;4.65;2.15;;;;;;;;;;5093744;28;20031;-69
2022/07/13 09:23:39;;;;;;;5.13;2.05;;;;;;;;;;5081420;28;20416;-68
2022/07/13 09:26:05;;;;;;;6.80;1.95;;;;;;;;;;5082493;28;20531;-68
2022/07/13 09:28:40;;;;;;;4.85;1.77;;;;;;;;;;5084411;28;20107;-68
2022/07/13 09:31:05;;;;;;;7.07;1.90;;;;;;;;;;5093085;28;20047;-68
2022/07/13 09:33:32;;;;;;;3.60;1.70;;;;;;;;;;5092918;28;20060;-68
2022/07/13 09:35:58;;;;;;;7.43;1.85;;;;;;;;;;5092732;28;20426;-68
2022/07/13 09:38:37;;;;;;;3.78;1.67;;;;;;;;;;5086414;28;20023;-67
2022/07/13 09:41:14;;;;;;;3.85;1.52;;;;;;;;;;5073114;28;20136;-67
2022/07/13 09:46:58;;;;;;;5.13;1.95;;;;;;;;;;5092746;28;20022;-68
2022/07/13 09:49:37;;;;;;;5.45;1.80;;;;;;;;;;5079534;28;20082;-67
2022/07/13 09:52:03;;;;;;;5.03;1.48;;;;;;;;;;5076805;28;20675;-68
2022/07/13 09:54:29;;;;;;;4.57;1.60;;;;;;;;;;5092504;28;20016;-68
2022/07/13 09:57:01;;;;;;;4.20;1.40;;;;;;;;;;5090186;28;20080;-68
2022/07/13 09:59:29;;;;;;;9.48;1.27;;;;;;;;;;5092390;28;20024;-68
2022/07/13 10:01:55;;;;;;;3.95;1.60;;;;;;;;;;5092860;28;20028;-68
2022/07/13 10:04:21;;;;;;;3.38;1.40;;;;;;;;;;5092494;28;20047;-68
2022/07/13 10:06:46;;;;;;;7.28;1.67;;;;;;;;;;5090830;28;20084;-68
2022/07/13 10:09:12;;;;;;;6.72;1.80;;;;;;;;;;5092357;28;20057;-68
2022/07/13 10:11:37;;;;;;;6.80;1.40;;;;;;;;;;5092846;28;20095;-67
2022/07/13 10:14:06;;;;;;;3.42;1.45;;;;;;;;;;5092665;28;20024;-68
2022/07/13 10:16:32;;;;;;;4.25;1.40;;;;;;;;;;5092488;28;20051;-68
2022/07/13 10:19:00;;;;;;;6.93;1.45;;;;;;;;;;5089622;28;20055;-68
2022/07/13 10:21:44;;;;;;;5.35;1.33;;;;;;;;;;5093356;28;20027;-68
2022/07/13 10:24:13;;;;;;;5.43;1.20;;;;;;;;;;5091534;28;20031;-68
2022/07/13 10:26:38;;;;;;;7.10;1.20;;;;;;;;;;5092507;28;20361;-68
2022/07/13 10:29:05;;;;;;;3.13;1.30;;;;;;;;;;5088497;28;20035;-68
2022/07/13 10:31:33;;;;;;;3.38;1.20;;;;;;;;;;5072063;28;20254;-69
2022/07/13 10:33:58;;;;;;;5.20;1.30;;;;;;;;;;5086985;28;20028;-69
2022/07/13 10:37:03;;;;;;;5.28;1.30;;;;;;;;;;5092396;28;20259;-69
2022/07/13 10:39:29;;;;;;;4.40;1.20;;;;;;;;;;5044094;28;20030;-68
2022/07/13 10:41:58;;;;;;;3.83;1.40;;;;;;;;;;5029138;28;20409;-68
2022/07/13 10:44:30;;;;;;;3.45;1.58;;;;;;;;;;5045381;28;20153;-69
2022/07/13 10:46:56;;;;;;;3.13;1.30;;;;;;;;;;5038591;28;20028;-68
2022/07/13 10:49:30;;;;;;;4.03;1.42;;;;;;;;;;5033301;28;20033;-68
2022/07/13 10:51:57;;;;;;;3.53;1.30;;;;;;;;;;5044755;28;20053;-68
2022/07/13 10:54:22;;;;;;;6.82;1.40;;;;;;;;;;5034123;28;20035;-68
2022/07/13 10:57:23;;;;;;;2.90;1.20;;;;;;;;;;5030150;28;20029;-68
2022/07/13 10:59:49;;;;;;;4.97;1.25;;;;;;;;;;4959316;28;20098;-68
2022/07/13 11:02:35;;;;;;;5.57;1.42;;;;;;;;;;4969337;28;20170;-68
2022/07/13 11:05:01;;;;;;;2.97;1.38;;;;;;;;;;4957427;28;20027;-68
2022/07/13 11:07:38;;;;;;;5.25;1.48;;;;;;;;;;4968018;28;20407;-68
2022/07/13 11:10:15;;;;;;;5.78;1.50;;;;;;;;;;4978603;28;20062;-68
2022/07/13 11:12:55;;;;;;;5.68;1.60;;;;;;;;;;4987553;28;20026;-68
2022/07/13 11:15:21;;;;;;;2.80;1.40;;;;;;;;;;4977138;28;20177;-68
2022/07/13 11:17:53;;;;;;;4.40;1.60;;;;;;;;;;4986688;28;20030;-68
2022/07/13 11:20:18;;;;;;;5.10;1.70;;;;;;;;;;4987913;28;20073;-68
2022/07/13 11:25:58;;;;;;;5.82;1.88;;;;;;;;;;4994967;28;20080;-68
2022/07/13 11:28:44;;;;;;;3.75;1.50;;;;;;;;;;4995813;28;20046;-68
2022/07/13 11:31:11;;;;;;;6.15;1.77;;;;;;;;;;4990173;28;20073;-68
2022/07/13 11:33:36;;;;;;;3.75;1.63;;;;;;;;;;5028751;28;20106;-68
2022/07/13 11:36:01;;;;;;;3.93;1.70;;;;;;;;;;5083395;28;20016;-68
2022/07/13 11:38:34;;;;;;;5.15;1.85;;;;;;;;;;5096223;28;20266;-68
2022/07/13 11:41:00;;;;;;;4.72;2.03;;;;;;;;;;5098382;28;20023;-68
2022/07/13 11:43:25;;;;;;;4.10;2.00;;;;;;;;;;5098039;28;20390;-68
2022/07/13 11:45:50;;;;;;;6.70;2.20;;;;;;;;;;5093069;28;20532;-69
2022/07/13 11:48:16;;;;;;;4.07;2.10;;;;;;;;;;5088073;28;20012;-68
2022/07/13 11:50:41;;;;;;;4.55;2.28;;;;;;;;;;5097880;28;20020;-68
2022/07/13 11:53:06;;;;;;;4.60;1.95;;;;;;;;;;5091297;28;20072;-67
2022/07/13 11:55:32;;;;;;;5.80;2.15;;;;;;;;;;5097098;28;20020;-68
2022/07/13 11:58:00;;;;;;;5.85;1.90;;;;;;;;;;5097767;28;20043;-68
2022/07/13 12:00:25;;;;;;;3.30;2.00;;;;;;;;;;5097850;28;20024;-68
2022/07/13 12:02:51;;;;;;;5.13;2.00;;;;;;;;;;5097612;28;20039;-68
2022/07/13 12:05:23;;;;;;;6.68;2.00;;;;;;;;;;5078462;28;20367;-68
2022/07/13 12:07:59;;;;;;;3.60;2.00;;;;;;;;;;5083216;28;20048;-68
2022/07/13 12:10:25;;;;;;;5.07;1.80;;;;;;;;;;5095630;28;20035;-68
2022/07/13 12:12:50;;;;;;;4.28;1.95;;;;;;;;;;5097715;28;20032;-67
2022/07/13 12:15:17;;;;;;;3.58;1.60;;;;;;;;;;5096214;28;20099;-68
2022/07/13 12:17:44;;;;;;;4.40;1.92;;;;;;;;;;5082494;28;20468;-68
2022/07/13 12:20:10;;;;;;;3.85;1.90;;;;;;;;;;5090762;28;20022;-69
2022/07/13 12:22:36;;;;;;;6.32;1.63;;;;;;;;;;5081257;28;20816;-68
2022/07/13 12:25:02;;;;;;;3.85;1.80;;;;;;;;;;5095705;28;20107;-68
2022/07/13 12:27:28;;;;;;;3.55;1.70;;;;;;;;;;5097603;28;20110;-68
2022/07/13 12:30:05;;;;;;;3.83;1.70;;;;;;;;;;5095916;28;20479;-68
2022/07/13 12:32:30;;;;;;;3.83;2.15;;;;;;;;;;5093975;28;20028;-68
2022/07/13 12:34:55;;;;;;;3.80;1.90;;;;;;;;;;5074021;28;20026;-67
2022/07/13 12:37:36;;;;;;;5.30;2.15;;;;;;;;;;5075504;28;20062;-68
2022/07/13 12:40:02;;;;;;;6.47;2.10;;;;;;;;;;5082916;28;20016;-67
2022/07/13 12:42:27;;;;;;;4.88;2.15;;;;;;;;;;5091988;28;20089;-68
2022/07/13 12:44:53;;;;;;;7.13;2.20;;;;;;;;;;5091000;28;20027;-68
2022/07/13 12:47:24;;;;;;;4.78;2.10;;;;;;;;;;5094072;28;20020;-68
2022/07/13 12:49:49;;;;;;;;;;;;;;;;;;5087728;28;20032;-68
2022/07/13 12:52:14;;;;;;;4.60;2.22;;;;;;;;;;5087571;28;19916;-68
2022/07/13 12:54:39;;;;;;;4.72;2.10;;;;;;;;;;5088719;28;20020;-68
2022/07/13 12:57:12;;;;;;;4.78;2.20;;;;;;;;;;5072495;28;20013;-68
2022/07/13 12:59:38;;;;;;;8.73;2.40;;;;;;;;;;5080872;28;20052;-67
2022/07/13 13:02:04;;;;;;;8.65;2.70;;;;;;;;;;5073846;28;20105;-68
2022/07/13 13:04:29;;;;;;;7.70;2.28;;;;;;;;;;5092968;28;20528;-68
2022/07/13 13:06:54;;;;;;;4.85;2.40;;;;;;;;;;5080200;28;20065;-68
2022/07/13 13:09:20;;;;;;;6.70;2.50;;;;;;;;;;5089935;28;20101;-68
2022/07/13 13:11:46;;;;;;;5.68;2.28;;;;;;;;;;5073831;28;20380;-68
2022/07/13 13:14:12;;;;;;;6.25;2.13;;;;;;;;;;5074665;28;20027;-67
2022/07/13 13:16:38;;;;;;;5.95;1.83;;;;;;;;;;5073655;28;20020;-68
2022/07/13 13:19:03;;;;;;;8.93;1.90;;;;;;;;;;5089330;28;20471;-68
2022/07/13 13:21:29;;;;;;;5.60;2.10;;;;;;;;;;5093725;28;20020;-68
2022/07/13 13:23:55;;;;;;;5.10;2.10;;;;;;;;;;5080489;28;20052;-68
2022/07/13 13:26:20;;;;;;;6.88;2.25;;;;;;;;;;5087843;28;20427;-68
2022/07/13 13:31:29;;;;;;;4.00;1.92;;;;;;;;;;5092782;28;20450;-68
2022/07/13 13:33:54;;;;;;;8.82;2.20;;;;;;;;;;5081907;28;20028;-68
2022/07/13 13:36:20;;;;;;;5.38;2.10;;;;;;;;;;5073178;28;20035;-68
2022/07/13 13:38:45;;;;;;;5.45;1.80;;;;;;;;;;5086223;28;20016;-68
2022/07/13 13:41:10;;;;;;;4.60;1.50;;;;;;;;;;5091435;28;20031;-68
2022/07/13 13:43:35;;;;;;;4.55;1.88;;;;;;;;;;5092691;28;20379;-68
2022/07/13 13:46:01;;;;;;;4.90;1.60;;;;;;;;;;5092650;28;20024;-68
2022/07/13 13:48:26;;;;;;;3.40;1.48;;;;;;;;;;5089092;28;20028;-68
2022/07/13 13:50:51;;;;;;;7.00;1.90;;;;;;;;;;5082417;28;20028;-68
2022/07/13 13:53:17;;;;;;;5.53;1.58;;;;;;;;;;5073596;28;20020;-67
2022/07/13 13:55:42;;;;;;;12.98;2.40;;;;;;;;;;5077907;28;20044;-69
2022/07/13 13:58:08;;;;;;;4.45;1.67;;;;;;;;;;5092774;28;20024;-68
2022/07/13 14:00:34;;;;;;;3.88;1.80;;;;;;;;;;5074997;28;20016;-68
2022/07/13 14:02:59;;;;;;;5.78;1.52;;;;;;;;;;5075986;28;20019;-68
2022/07/13 14:05:24;;;;;;;4.72;1.60;;;;;;;;;;5092659;28;20035;-68
2022/07/13 14:07:50;;;;;;;5.70;1.40;;;;;;;;;;5092121;28;20016;-69
2022/07/13 14:10:15;;;;;;;7.00;1.45;;;;;;;;;;5091134;28;20036;-68
2022/07/13 14:12:40;;;;;;;4.90;1.92;;;;;;;;;;5091617;28;20032;-68
2022/07/13 14:15:06;;;;;;;3.42;1.40;;;;;;;;;;5092251;28;20048;-68
2022/07/13 14:17:31;;;;;;;4.43;1.50;;;;;;;;;;5092087;28;20031;-68
2022/07/13 14:19:57;;;;;;;2.95;1.70;;;;;;;;;;5092294;28;20013;-68
2022/07/13 14:22:22;;;;;;;4.90;1.80;;;;;;;;;;5076323;28;20024;-67
2022/07/13 14:24:48;;;;;;;4.25;1.30;;;;;;;;;;5087672;28;20016;-68
2022/07/13 14:27:15;;;;;;;5.60;1.48;;;;;;;;;;5072242;28;20032;-68
2022/07/13 14:29:40;;;;;;;5.95;1.50;;;;;;;;;;5092326;28;20110;-68
2022/07/13 14:32:05;;;;;;;4.90;1.30;;;;;;;;;;5092287;28;20038;-68
2022/07/13 14:34:31;;;;;;;4.90;1.20;;;;;;;;;;5086989;28;20025;-68
2022/07/13 14:36:56;;;;;;;4.63;1.30;;;;;;;;;;5071975;28;20017;-68
2022/07/13 14:39:21;;;;;;;5.00;1.42;;;;;;;;;;5089597;28;20476;-68
2022/07/13 14:41:46;;;;;;;5.55;1.73;;;;;;;;;;5090162;28;20073;-69
2022/07/13 14:44:14;;;;;;;2.33;1.10;;;;;;;;;;5091935;28;20038;-68
2022/07/13 14:46:39;;;;;;;3.42;1.30;;;;;;;;;;5079775;28;20283;-68
2022/07/13 14:49:05;;;;;;;5.77;1.43;;;;;;;;;;5087312;28;20434;-68
2022/07/13 14:51:30;;;;;;;7.20;1.20;;;;;;;;;;5089666;28;20274;-68
2022/07/13 14:54:04;;;;;;;3.60;1.00;;;;;;;;;;5088317;28;20309;-68